createdAt,value
2023-12-21T00:01:26.097Z,94.65
2023-12-21T00:03:54.181Z,93.81
2023-12-21T00:06:21.753Z,93.89
2023-12-21T00:08:49.261Z,94.30
2023-12-21T00:11:17.057Z,94.10
2023-12-21T00:13:45.784Z,94.42
2023-12-21T00:16:13.821Z,94.65
2023-12-21T00:18:41.828Z,94.78
2023-12-21T00:21:09.455Z,94.58
2023-12-21T00:23:36.953Z,94.55
2023-12-21T00:26:04.843Z,95.23
2023-12-21T00:28:32.509Z,95.42
2023-12-21T00:31:00.278Z,94.77
2023-12-21T00:33:28.386Z,95.09
2023-12-21T00:35:55.952Z,95.81
2023-12-21T00:38:23.484Z,95.80
2023-12-21T00:40:51.544Z,95.96
2023-12-21T00:43:19.030Z,96.56
2023-12-21T00:45:46.579Z,96.58
2023-12-21T00:48:16.270Z,96.26
2023-12-21T00:50:44.134Z,95.91
2023-12-21T00:53:11.662Z,95.47
2023-12-21T00:55:39.572Z,95.92
2023-12-21T00:58:07.127Z,95.45
2023-12-21T01:00:34.615Z,95.72
2023-12-21T01:03:02.558Z,96.09
2023-12-21T01:05:30.091Z,96.37
2023-12-21T01:07:57.630Z,96.11
2023-12-21T01:10:25.466Z,96.31
2023-12-21T01:12:53.252Z,96.87
2023-12-21T01:15:20.811Z,96.61
2023-12-21T01:17:48.937Z,97.21
2023-12-21T01:20:16.864Z,97.02
2023-12-21T01:22:44.539Z,97.25
2023-12-21T01:25:12.489Z,97.31
2023-12-21T01:27:40.020Z,96.67
2023-12-21T01:30:08.378Z,96.99
2023-12-21T01:32:36.273Z,97.59
2023-12-21T01:35:04.025Z,97.14
2023-12-21T01:37:31.745Z,97.00
2023-12-21T01:39:59.684Z,96.86
2023-12-21T01:42:27.241Z,97.03
2023-12-21T01:44:54.861Z,96.84
2023-12-21T01:47:23.044Z,97.07
2023-12-21T01:49:51.009Z,96.99
2023-12-21T01:52:19.915Z,96.69
2023-12-21T01:54:47.879Z,96.94
2023-12-21T01:57:16.150Z,96.63
2023-12-21T01:59:44.000Z,96.80
2023-12-21T02:02:11.929Z,96.63
2023-12-21T02:04:40.201Z,96.28
2023-12-21T02:07:07.963Z,96.51
2023-12-21T02:09:35.561Z,95.98
2023-12-21T02:12:03.582Z,96.07
2023-12-21T02:14:31.122Z,96.22
2023-12-21T02:17:03.361Z,95.83
2023-12-21T02:19:31.553Z,96.11
2023-12-21T02:22:03.284Z,96.14
2023-12-21T02:24:31.826Z,96.39
2023-12-21T02:27:00.591Z,96.45
2023-12-21T02:29:28.236Z,96.33
2023-12-21T02:31:56.321Z,96.34
2023-12-21T02:34:24.149Z,96.46
2023-12-21T02:36:51.925Z,96.55
2023-12-21T02:39:19.803Z,95.96
2023-12-21T02:41:49.107Z,95.88
2023-12-21T02:44:16.694Z,95.94
2023-12-21T02:46:44.553Z,96.04
2023-12-21T02:49:12.189Z,97.04
2023-12-21T02:51:39.733Z,97.31
2023-12-21T02:54:07.638Z,96.74
2023-12-21T02:56:35.201Z,96.28
2023-12-21T02:59:02.760Z,94.71
2023-12-21T03:01:30.665Z,94.44
2023-12-21T03:04:01.361Z,94.82
2023-12-21T03:06:28.956Z,94.61
2023-12-21T03:08:56.793Z,95.00
2023-12-21T03:11:24.384Z,94.67
2023-12-21T03:13:51.929Z,94.06
2023-12-21T03:16:20.128Z,94.73
2023-12-21T03:18:48.219Z,94.57
2023-12-21T03:21:16.476Z,94.23
2023-12-21T03:23:44.456Z,94.19
2023-12-21T03:26:12.413Z,93.91
2023-12-21T03:28:45.972Z,93.48
2023-12-21T03:31:18.154Z,93.29
2023-12-21T03:33:45.807Z,93.39
2023-12-21T03:36:14.141Z,94.14
2023-12-21T03:38:41.990Z,93.46
2023-12-21T03:41:09.594Z,93.48
2023-12-21T03:43:37.649Z,94.19
2023-12-21T03:46:09.298Z,95.51
2023-12-21T03:48:36.896Z,95.53
2023-12-21T03:51:05.001Z,95.37
2023-12-21T03:53:32.519Z,94.91
2023-12-21T03:55:59.977Z,93.67
2023-12-21T03:58:27.812Z,93.34
2023-12-21T04:00:55.508Z,94.62
2023-12-21T04:03:23.400Z,96.89
2023-12-21T04:05:51.349Z,98.71
2023-12-21T04:08:22.584Z,100.00
2023-12-21T04:10:50.573Z,100.00
2023-12-21T04:13:18.184Z,98.23
2023-12-21T04:15:45.715Z,98.13
2023-12-21T04:18:13.628Z,97.21
2023-12-21T04:20:41.170Z,97.05
2023-12-21T04:23:08.713Z,97.14
2023-12-21T04:25:36.700Z,97.30
2023-12-21T04:28:04.437Z,97.85
2023-12-21T04:30:31.974Z,97.39
2023-12-21T04:32:59.872Z,96.75
2023-12-21T04:35:27.486Z,96.93
2023-12-21T04:37:55.126Z,96.77
2023-12-21T04:40:22.948Z,97.05
2023-12-21T04:42:56.598Z,96.94
2023-12-21T04:45:24.711Z,96.71
2023-12-21T04:47:52.620Z,96.39
2023-12-21T04:50:21.359Z,96.06
2023-12-21T04:52:49.614Z,96.08
2023-12-21T04:55:17.744Z,96.01
2023-12-21T04:57:45.407Z,98.31
2023-12-21T05:00:13.723Z,98.10
2023-12-21T05:02:41.267Z,97.92
2023-12-21T05:05:08.969Z,97.61
2023-12-21T05:07:37.926Z,96.37
2023-12-21T05:10:06.732Z,95.95
2023-12-21T05:12:34.445Z,95.71
2023-12-21T05:15:02.322Z,95.47
2023-12-21T05:17:29.932Z,94.68
2023-12-21T05:19:57.566Z,94.49
2023-12-21T05:22:25.861Z,95.23
2023-12-21T05:24:53.459Z,95.81
2023-12-21T05:27:21.129Z,94.85
2023-12-21T05:29:48.985Z,94.38
2023-12-21T05:32:16.561Z,94.17
2023-12-21T05:34:44.293Z,95.82
2023-12-21T05:37:12.185Z,95.42
2023-12-21T05:39:40.501Z,94.39
2023-12-21T05:42:08.073Z,94.89
2023-12-21T05:44:35.986Z,96.22
2023-12-21T05:47:04.562Z,94.34
2023-12-21T05:49:32.134Z,93.93
2023-12-21T05:52:00.859Z,94.12
2023-12-21T05:54:28.781Z,93.88
2023-12-21T05:56:56.344Z,93.63
2023-12-21T05:59:24.170Z,93.48
2023-12-21T06:01:51.773Z,100.00
2023-12-21T06:04:19.794Z,91.61
2023-12-21T06:06:48.451Z,92.47
2023-12-21T06:09:16.364Z,97.73
2023-12-21T06:11:44.925Z,88.63
2023-12-21T06:14:13.359Z,79.38
2023-12-21T06:16:40.989Z,80.53
2023-12-21T06:19:12.029Z,82.55
2023-12-21T06:21:39.899Z,84.48
2023-12-21T06:24:08.115Z,86.37
2023-12-21T06:26:42.442Z,85.21
2023-12-21T06:29:10.971Z,87.71
2023-12-21T06:31:39.188Z,89.62
2023-12-21T06:34:06.953Z,90.68
2023-12-21T06:36:35.031Z,89.77
2023-12-21T06:39:03.927Z,89.49
2023-12-21T06:41:31.467Z,89.46
2023-12-21T06:43:59.074Z,90.04
2023-12-21T06:46:27.081Z,90.06
2023-12-21T06:48:54.741Z,90.74
2023-12-21T06:51:22.330Z,91.23
2023-12-21T06:53:50.675Z,90.96
2023-12-21T06:56:29.273Z,93.46
2023-12-21T06:59:03.549Z,95.03
2023-12-21T07:01:31.382Z,93.05
2023-12-21T07:03:59.906Z,93.16
2023-12-21T07:06:27.879Z,91.89
2023-12-21T07:08:56.245Z,90.47
2023-12-21T07:11:24.529Z,90.20
2023-12-21T07:13:52.467Z,93.12
2023-12-21T07:16:20.927Z,92.21
2023-12-21T07:18:48.612Z,91.55
2023-12-21T07:21:16.499Z,91.11
2023-12-21T07:23:44.064Z,91.58
2023-12-21T07:26:12.320Z,91.95
2023-12-21T07:28:41.839Z,91.80
2023-12-21T07:31:11.570Z,91.82
2023-12-21T07:33:39.251Z,92.18
2023-12-21T07:36:08.847Z,91.57
2023-12-21T07:38:37.961Z,91.85
2023-12-21T07:41:05.514Z,95.77
2023-12-21T07:43:33.390Z,94.48
2023-12-21T07:46:01.036Z,94.43
2023-12-21T07:48:28.731Z,94.62
2023-12-21T07:50:56.619Z,94.46
2023-12-21T07:53:24.154Z,94.15
2023-12-21T07:55:51.767Z,93.66
2023-12-21T07:58:19.788Z,93.14
2023-12-21T08:00:47.832Z,93.89
2023-12-21T08:03:15.784Z,94.88
2023-12-21T08:05:43.487Z,94.45
2023-12-21T08:08:10.975Z,93.86
2023-12-21T08:10:38.934Z,94.09
2023-12-21T08:13:09.671Z,93.85
2023-12-21T08:15:37.215Z,93.19
2023-12-21T08:18:06.411Z,93.42
2023-12-21T08:20:37.976Z,93.15
2023-12-21T08:23:05.780Z,93.22
2023-12-21T08:25:33.447Z,93.31
2023-12-21T08:28:01.148Z,93.20
2023-12-21T08:30:29.204Z,93.49
2023-12-21T08:32:56.913Z,93.40
2023-12-21T08:35:24.533Z,93.76
2023-12-21T08:37:52.433Z,93.55
2023-12-21T08:40:20.024Z,93.44
2023-12-21T08:42:47.835Z,93.25
2023-12-21T08:45:15.823Z,92.72
2023-12-21T08:47:43.768Z,92.57
2023-12-21T08:50:12.888Z,92.42
2023-12-21T08:52:42.939Z,91.51
2023-12-21T08:55:10.964Z,91.01
2023-12-21T08:57:38.706Z,90.67
2023-12-21T09:00:09.622Z,90.38
2023-12-21T09:02:38.729Z,89.91
2023-12-21T09:05:07.726Z,89.83
2023-12-21T09:07:35.580Z,89.59
2023-12-21T09:10:04.940Z,89.30
2023-12-21T09:12:33.013Z,88.08
2023-12-21T09:15:00.612Z,87.94
2023-12-21T09:17:28.306Z,87.59
2023-12-21T09:19:56.281Z,86.71
2023-12-21T09:22:23.839Z,85.75
2023-12-21T09:24:51.599Z,84.94
2023-12-21T09:27:19.483Z,83.65
2023-12-21T09:29:47.015Z,83.71
2023-12-21T09:32:14.578Z,82.98
2023-12-21T09:34:42.542Z,82.68
2023-12-21T09:37:10.342Z,81.32
2023-12-21T09:39:37.877Z,81.09
2023-12-21T09:42:06.763Z,81.54
2023-12-21T09:44:35.524Z,78.98
2023-12-21T09:47:08.006Z,77.26
2023-12-21T09:49:38.555Z,76.65
2023-12-21T09:52:08.639Z,74.32
2023-12-21T09:54:37.551Z,74.96
2023-12-21T09:57:05.928Z,74.07
2023-12-21T09:59:33.714Z,71.90
2023-12-21T10:02:02.465Z,69.74
2023-12-21T10:04:33.208Z,69.23
2023-12-21T10:07:01.036Z,69.41
2023-12-21T10:09:28.567Z,68.62
2023-12-21T10:11:56.432Z,67.60
2023-12-21T10:14:27.141Z,67.82
2023-12-21T10:16:56.225Z,67.06
2023-12-21T10:19:24.159Z,67.88
2023-12-21T10:21:52.522Z,67.89
2023-12-21T10:24:20.208Z,68.08
2023-12-21T10:26:51.459Z,67.35
2023-12-21T10:29:20.295Z,67.02
2023-12-21T10:31:49.856Z,67.51
2023-12-21T10:34:17.807Z,67.87
2023-12-21T10:36:46.378Z,67.74
2023-12-21T10:39:18.260Z,68.70
2023-12-21T10:41:46.350Z,68.51
2023-12-21T10:44:19.502Z,68.90
2023-12-21T10:46:48.938Z,67.88
2023-12-21T10:49:18.613Z,68.53
2023-12-21T10:51:46.607Z,67.06
2023-12-21T10:54:14.450Z,65.60
2023-12-21T10:56:47.108Z,65.74
2023-12-21T10:59:17.142Z,64.55
2023-12-21T11:01:45.156Z,64.29
2023-12-21T11:04:14.688Z,64.22
2023-12-21T11:06:43.618Z,64.15
2023-12-21T11:09:14.176Z,62.69
2023-12-21T11:11:41.703Z,62.67
2023-12-21T11:14:09.334Z,61.65
2023-12-21T11:16:42.675Z,60.78
2023-12-21T11:19:13.615Z,59.21
2023-12-21T11:21:41.754Z,58.79
2023-12-21T11:24:10.823Z,57.18
2023-12-21T11:26:38.754Z,56.80
2023-12-21T11:29:11.658Z,57.38
2023-12-21T11:31:40.650Z,56.26
2023-12-21T11:34:15.733Z,55.72
2023-12-21T11:36:43.651Z,55.97
2023-12-21T11:39:18.073Z,55.32
2023-12-21T11:41:59.697Z,55.47
2023-12-21T11:44:37.726Z,54.75
2023-12-21T11:47:09.330Z,55.25
2023-12-21T11:49:38.666Z,54.97
2023-12-21T11:52:06.578Z,53.18
2023-12-21T11:54:35.332Z,53.49
2023-12-21T11:57:13.686Z,54.52
2023-12-21T11:59:41.333Z,53.16
2023-12-21T12:02:11.790Z,53.44
2023-12-21T12:04:40.095Z,54.05
2023-12-21T12:07:07.837Z,53.87
2023-12-21T12:09:35.657Z,53.38
2023-12-21T12:12:03.820Z,53.31
2023-12-21T12:14:31.440Z,52.90
2023-12-21T12:16:58.955Z,53.03
2023-12-21T12:19:29.802Z,53.14
2023-12-21T12:21:57.542Z,53.20
2023-12-21T12:24:25.598Z,53.56
2023-12-21T12:26:53.964Z,53.39
2023-12-21T12:29:21.836Z,53.34
2023-12-21T12:31:50.061Z,52.89
2023-12-21T12:34:18.769Z,51.50
2023-12-21T12:36:54.024Z,51.78
2023-12-21T12:39:29.016Z,51.68
2023-12-21T12:41:59.107Z,52.06
2023-12-21T12:44:27.094Z,52.35
2023-12-21T12:46:56.248Z,52.45
2023-12-21T12:49:25.110Z,52.57
2023-12-21T12:51:53.450Z,53.27
2023-12-21T12:54:21.499Z,52.77
2023-12-21T12:56:50.317Z,52.26
2023-12-21T12:59:22.064Z,52.44
2023-12-21T13:01:49.954Z,52.48
2023-12-21T13:04:17.973Z,52.51
2023-12-21T13:06:50.524Z,53.39
2023-12-21T13:09:18.928Z,53.49
2023-12-21T13:11:47.261Z,54.10
2023-12-21T13:14:16.777Z,55.20
2023-12-21T13:16:46.304Z,55.50
2023-12-21T13:19:14.153Z,55.86
2023-12-21T13:21:41.819Z,56.27
2023-12-21T13:24:10.436Z,56.14
2023-12-21T13:26:37.980Z,56.42
2023-12-21T13:29:07.606Z,56.01
2023-12-21T13:31:35.735Z,55.78
2023-12-21T13:34:04.100Z,55.49
2023-12-21T13:36:32.688Z,54.96
2023-12-21T13:39:00.560Z,54.44
2023-12-21T13:41:28.199Z,53.78
2023-12-21T13:43:55.897Z,53.18
2023-12-21T13:46:25.284Z,52.79
2023-12-21T13:48:53.216Z,52.84
2023-12-21T13:51:20.943Z,52.59
2023-12-21T13:53:48.806Z,52.51
2023-12-21T13:56:16.460Z,52.08
2023-12-21T13:58:44.050Z,51.85
2023-12-21T14:01:11.978Z,51.55
2023-12-21T14:03:40.214Z,50.66
2023-12-21T14:06:07.992Z,51.16
2023-12-21T14:08:35.984Z,51.76
2023-12-21T14:11:03.904Z,52.33
2023-12-21T14:13:31.444Z,53.12
2023-12-21T14:15:59.228Z,53.58
2023-12-21T14:18:27.120Z,54.28
2023-12-21T14:20:55.751Z,54.83
2023-12-21T14:23:23.890Z,55.95
2023-12-21T14:25:53.032Z,57.03
2023-12-21T14:28:22.032Z,58.30
2023-12-21T14:30:51.456Z,59.76
2023-12-21T14:33:19.374Z,60.67
2023-12-21T14:35:49.435Z,61.97
2023-12-21T14:38:17.436Z,62.73
2023-12-21T14:40:46.594Z,63.32
2023-12-21T14:43:14.816Z,64.15
2023-12-21T14:45:42.511Z,65.03
2023-12-21T14:48:10.572Z,65.32
2023-12-21T14:50:38.200Z,65.88
2023-12-21T14:53:05.731Z,66.12
2023-12-21T14:55:35.431Z,66.82
2023-12-21T14:58:03.118Z,67.24
2023-12-21T15:00:33.434Z,67.62
2023-12-21T15:03:03.787Z,68.01
2023-12-21T15:05:31.417Z,68.51
2023-12-21T15:07:59.091Z,68.96
2023-12-21T15:10:27.777Z,69.09
2023-12-21T15:12:55.387Z,69.73
2023-12-21T15:15:22.996Z,69.91
2023-12-21T15:17:51.173Z,69.87
2023-12-21T15:20:20.206Z,70.00
2023-12-21T15:22:47.894Z,70.40
2023-12-21T15:25:16.011Z,70.45
2023-12-21T15:27:44.713Z,70.14
2023-12-21T15:30:12.850Z,69.91
2023-12-21T15:32:40.856Z,69.46
2023-12-21T15:35:08.638Z,69.38
2023-12-21T15:37:36.364Z,69.46
2023-12-21T15:40:05.213Z,69.48
2023-12-21T15:42:32.770Z,69.01
2023-12-21T15:45:00.328Z,68.92
2023-12-21T15:47:29.452Z,69.00
2023-12-21T15:49:57.160Z,69.01
2023-12-21T15:52:24.783Z,68.84
2023-12-21T15:54:52.612Z,68.83
2023-12-21T15:57:20.143Z,68.85
2023-12-21T15:59:47.630Z,69.18
2023-12-21T16:02:15.434Z,69.42
2023-12-21T16:04:43.646Z,69.38
2023-12-21T16:07:12.650Z,69.35
2023-12-21T16:09:40.251Z,69.52
2023-12-21T16:12:08.277Z,69.84
2023-12-21T16:14:35.961Z,77.50
2023-12-21T16:17:04.292Z,74.80
2023-12-21T16:19:33.067Z,71.27
2023-12-21T16:22:00.747Z,72.88
2023-12-21T16:24:28.339Z,69.47
2023-12-21T16:26:56.247Z,67.88
2023-12-21T16:29:23.782Z,65.40
2023-12-21T16:31:52.245Z,59.87
2023-12-21T16:34:20.367Z,59.02
2023-12-21T16:36:47.934Z,59.73
2023-12-21T16:39:16.612Z,63.47
2023-12-21T16:41:45.868Z,62.62
2023-12-21T16:44:13.383Z,63.24
2023-12-21T16:46:40.932Z,64.66
2023-12-21T16:49:08.918Z,65.40
2023-12-21T16:51:36.467Z,65.14
2023-12-21T16:54:04.293Z,67.59
2023-12-21T16:56:32.300Z,68.01
2023-12-21T16:58:59.834Z,67.35
2023-12-21T17:01:27.435Z,68.00
2023-12-21T17:03:58.556Z,68.52
2023-12-21T17:06:27.083Z,68.78
2023-12-21T17:08:54.917Z,69.16
2023-12-21T17:11:23.491Z,69.01
2023-12-21T17:13:53.160Z,69.22
2023-12-21T17:16:24.255Z,70.56
2023-12-21T17:18:52.422Z,70.83
2023-12-21T17:21:20.003Z,70.85
2023-12-21T17:23:47.955Z,71.72
2023-12-21T17:26:15.499Z,71.16
2023-12-21T17:28:43.586Z,72.43
2023-12-21T17:31:11.779Z,72.90
2023-12-21T17:33:39.403Z,73.69
2023-12-21T17:36:07.231Z,74.19
2023-12-21T17:38:35.203Z,76.02
2023-12-21T17:41:02.814Z,75.50
2023-12-21T17:43:30.449Z,75.58
2023-12-21T17:46:00.670Z,75.86
2023-12-21T17:48:28.759Z,75.82
2023-12-21T17:50:56.837Z,76.07
2023-12-21T17:53:24.810Z,76.61
2023-12-21T17:55:52.567Z,76.14
2023-12-21T17:58:20.358Z,76.62
2023-12-21T18:00:48.304Z,77.12
2023-12-21T18:03:16.151Z,76.77
2023-12-21T18:05:45.392Z,76.59
2023-12-21T18:08:14.623Z,76.63
2023-12-21T18:10:42.546Z,76.69
2023-12-21T18:13:10.410Z,76.94
2023-12-21T18:15:37.985Z,76.79
2023-12-21T18:18:05.904Z,76.61
2023-12-21T18:20:33.589Z,76.80
2023-12-21T18:23:01.127Z,75.42
2023-12-21T18:25:28.958Z,75.03
2023-12-21T18:27:56.561Z,73.71
2023-12-21T18:30:24.128Z,73.74
2023-12-21T18:32:52.044Z,74.10
2023-12-21T18:35:19.705Z,74.27
2023-12-21T18:37:47.557Z,74.63
2023-12-21T18:40:15.788Z,75.03
2023-12-21T18:42:43.761Z,75.15
2023-12-21T18:45:11.422Z,75.55
2023-12-21T18:47:39.354Z,75.81
2023-12-21T18:50:07.510Z,76.62
2023-12-21T18:52:35.248Z,76.65
2023-12-21T18:55:03.658Z,76.75
2023-12-21T18:57:32.947Z,77.47
2023-12-21T19:00:00.757Z,78.14
2023-12-21T19:02:28.697Z,77.89
2023-12-21T19:04:56.352Z,77.99
2023-12-21T19:07:23.927Z,78.12
2023-12-21T19:09:51.818Z,78.11
2023-12-21T19:12:21.791Z,77.79
2023-12-21T19:14:49.424Z,77.89
2023-12-21T19:17:17.372Z,77.38
2023-12-21T19:19:45.121Z,77.02
2023-12-21T19:22:12.717Z,84.35
2023-12-21T19:24:40.587Z,91.09
2023-12-21T19:27:08.153Z,82.98
2023-12-21T19:29:35.725Z,73.06
2023-12-21T19:32:03.609Z,71.57
2023-12-21T19:34:31.230Z,79.58
2023-12-21T19:36:59.038Z,70.49
2023-12-21T19:39:26.898Z,70.18
2023-12-21T19:41:54.527Z,72.22
2023-12-21T19:44:22.157Z,73.27
2023-12-21T19:46:50.058Z,71.77
2023-12-21T19:49:17.767Z,71.64
2023-12-21T19:51:45.404Z,71.51
2023-12-21T19:54:15.170Z,72.57
2023-12-21T19:56:45.985Z,73.42
2023-12-21T19:59:20.084Z,73.81
2023-12-21T20:01:51.320Z,74.75
2023-12-21T20:04:19.491Z,75.63
2023-12-21T20:06:49.435Z,75.19
2023-12-21T20:09:17.152Z,73.94
2023-12-21T20:11:45.212Z,74.57
2023-12-21T20:14:12.922Z,75.46
2023-12-21T20:16:40.531Z,74.54
2023-12-21T20:19:08.975Z,74.41
2023-12-21T20:21:36.670Z,74.47
2023-12-21T20:24:04.404Z,73.02
2023-12-21T20:26:32.238Z,73.94
2023-12-21T20:28:59.822Z,73.63
2023-12-21T20:31:28.594Z,73.46
2023-12-21T20:33:56.502Z,74.45
2023-12-21T20:36:24.127Z,73.92
2023-12-21T20:38:51.694Z,74.78
2023-12-21T20:41:19.535Z,75.90
2023-12-21T20:43:48.405Z,75.60
2023-12-21T20:46:15.972Z,75.50
2023-12-21T20:48:43.821Z,74.98
2023-12-21T20:51:11.419Z,74.76
2023-12-21T20:53:39.091Z,74.93
2023-12-21T20:56:07.187Z,75.35
2023-12-21T20:58:36.020Z,75.45
2023-12-21T21:01:04.988Z,75.09
2023-12-21T21:03:37.947Z,75.25
2023-12-21T21:06:06.196Z,75.73
2023-12-21T21:08:34.082Z,75.74
2023-12-21T21:11:01.704Z,75.69
2023-12-21T21:13:29.537Z,75.68
2023-12-21T21:15:57.386Z,75.72
2023-12-21T21:18:24.964Z,75.66
2023-12-21T21:20:53.269Z,75.88
2023-12-21T21:23:21.082Z,76.37
2023-12-21T21:25:48.683Z,77.04
2023-12-21T21:28:16.431Z,77.26
2023-12-21T21:30:56.711Z,77.55
2023-12-21T21:33:28.348Z,77.32
2023-12-21T21:35:56.343Z,77.09
2023-12-21T21:38:23.932Z,77.03
2023-12-21T21:40:53.838Z,77.11
2023-12-21T21:43:21.758Z,77.14
2023-12-21T21:45:49.278Z,78.28
2023-12-21T21:48:17.654Z,78.35
2023-12-21T21:50:45.809Z,78.41
2023-12-21T21:53:13.379Z,78.60
2023-12-21T21:55:41.568Z,78.79
2023-12-21T21:58:09.593Z,78.48
2023-12-21T22:00:37.132Z,78.53
2023-12-21T22:03:07.275Z,78.32
2023-12-21T22:05:34.997Z,78.25
2023-12-21T22:08:02.706Z,78.55
2023-12-21T22:10:30.621Z,78.64
2023-12-21T22:12:58.189Z,78.66
2023-12-21T22:15:25.677Z,78.31
2023-12-21T22:17:53.573Z,78.21
2023-12-21T22:20:21.236Z,77.85
2023-12-21T22:22:48.744Z,78.07
2023-12-21T22:25:16.998Z,78.04
2023-12-21T22:27:44.550Z,77.92
2023-12-21T22:30:12.307Z,78.30
2023-12-21T22:32:40.422Z,78.17
2023-12-21T22:35:08.385Z,78.28
2023-12-21T22:37:35.975Z,77.98
2023-12-21T22:40:03.949Z,78.06
2023-12-21T22:42:31.460Z,77.82
2023-12-21T22:44:58.983Z,77.78
2023-12-21T22:47:26.969Z,77.72
2023-12-21T22:49:54.710Z,77.54
2023-12-21T22:52:22.266Z,77.33
2023-12-21T22:54:50.097Z,77.00
2023-12-21T22:57:17.642Z,76.94
2023-12-21T22:59:45.136Z,77.07
2023-12-21T23:02:12.975Z,77.44
2023-12-21T23:04:40.560Z,77.50
2023-12-21T23:07:09.213Z,77.35
2023-12-21T23:09:39.699Z,77.36
2023-12-21T23:12:07.971Z,77.04
2023-12-21T23:14:35.683Z,77.14
2023-12-21T23:17:04.279Z,77.23
2023-12-21T23:19:31.834Z,77.29
2023-12-21T23:21:59.298Z,77.36
2023-12-21T23:24:27.081Z,77.13
2023-12-21T23:26:54.558Z,77.17
2023-12-21T23:29:23.587Z,77.16
2023-12-21T23:31:51.466Z,77.10
2023-12-21T23:34:19.179Z,77.31
2023-12-21T23:36:46.780Z,77.53
2023-12-21T23:39:14.629Z,77.65
2023-12-21T23:41:42.515Z,77.72
2023-12-21T23:44:10.784Z,77.95
2023-12-21T23:46:38.613Z,78.33
2023-12-21T23:49:06.266Z,78.72
2023-12-21T23:51:33.979Z,79.02
2023-12-21T23:54:01.779Z,79.33
2023-12-21T23:56:29.265Z,79.57
2023-12-21T23:58:56.874Z,79.71
